createdAt,value
2019-05-19T00:01:39.621Z,13.80
2019-05-19T00:04:09.298Z,13.90
2019-05-19T00:06:38.918Z,13.80
2019-05-19T00:09:09.810Z,13.80
2019-05-19T00:11:39.506Z,13.90
2019-05-19T00:14:09.134Z,13.90
2019-05-19T00:16:38.813Z,13.90
2019-05-19T00:19:08.435Z,13.90
2019-05-19T00:21:38.110Z,13.90
2019-05-19T00:24:07.769Z,13.80
2019-05-19T00:26:37.392Z,13.80
2019-05-19T00:29:07.075Z,13.80
2019-05-19T00:31:36.674Z,13.80
2019-05-19T00:34:06.382Z,13.70
2019-05-19T00:36:35.982Z,13.70
2019-05-19T00:39:06.510Z,13.60
2019-05-19T00:41:36.222Z,13.60
2019-05-19T00:44:06.211Z,13.60
2019-05-19T00:46:35.922Z,13.60
2019-05-19T00:49:05.608Z,13.60
2019-05-19T00:51:35.679Z,13.70
2019-05-19T00:54:05.365Z,13.60
2019-05-19T00:56:35.809Z,13.60
2019-05-19T00:59:05.790Z,13.60
2019-05-19T01:01:35.479Z,13.60
2019-05-19T01:04:05.099Z,13.60
2019-05-19T01:06:35.798Z,13.60
2019-05-19T01:09:07.203Z,13.50
2019-05-19T01:11:36.920Z,13.50
2019-05-19T01:14:18.377Z,13.60
2019-05-19T01:16:48.001Z,13.60
2019-05-19T01:19:17.638Z,13.50
2019-05-19T01:21:47.802Z,13.50
2019-05-19T01:24:17.434Z,13.50
2019-05-19T01:26:47.046Z,13.50
2019-05-19T01:29:16.742Z,13.40
2019-05-19T01:31:46.361Z,13.30
2019-05-19T01:34:16.179Z,13.40
2019-05-19T01:36:45.866Z,13.40
2019-05-19T01:39:15.502Z,13.40
2019-05-19T01:41:45.122Z,13.40
2019-05-19T01:44:14.734Z,13.50
2019-05-19T01:46:44.467Z,13.50
2019-05-19T01:49:14.111Z,13.50
2019-05-19T01:51:43.736Z,13.50
2019-05-19T01:54:16.630Z,13.50
2019-05-19T01:56:44.671Z,13.50
2019-05-19T01:59:14.313Z,13.50
2019-05-19T02:01:43.951Z,13.40
2019-05-19T02:04:13.621Z,13.40
2019-05-19T02:06:43.226Z,13.40
2019-05-19T02:09:13.942Z,13.40
2019-05-19T02:11:43.606Z,13.50
2019-05-19T02:14:13.218Z,13.50
2019-05-19T02:16:42.836Z,13.50
2019-05-19T02:19:12.465Z,13.50
2019-05-19T02:21:42.074Z,13.50
2019-05-19T02:24:12.706Z,13.50
2019-05-19T02:26:42.478Z,13.50
2019-05-19T02:29:12.096Z,13.40
2019-05-19T02:31:41.800Z,13.50
2019-05-19T02:34:11.481Z,13.40
2019-05-19T02:36:41.168Z,13.50
2019-05-19T02:39:10.943Z,13.50
2019-05-19T02:41:42.414Z,13.50
2019-05-19T02:44:13.699Z,13.50
2019-05-19T02:46:43.774Z,13.50
2019-05-19T02:49:14.130Z,13.50
2019-05-19T02:51:46.142Z,13.40
2019-05-19T02:54:15.999Z,13.40
2019-05-19T02:56:47.258Z,13.40
2019-05-19T02:59:18.223Z,13.30
2019-05-19T03:02:12.148Z,13.30
2019-05-19T03:04:41.763Z,13.20
2019-05-19T03:07:11.428Z,13.20
2019-05-19T03:09:41.038Z,13.20
2019-05-19T03:12:10.728Z,13.20
2019-05-19T03:14:40.343Z,13.20
2019-05-19T03:17:09.950Z,13.20
2019-05-19T03:19:39.585Z,13.20
2019-05-19T03:22:09.228Z,13.30
2019-05-19T03:24:38.844Z,13.20
2019-05-19T03:27:08.455Z,13.20
2019-05-19T03:29:42.542Z,13.20
2019-05-19T03:32:40.644Z,13.20
2019-05-19T03:35:10.458Z,13.20
2019-05-19T03:37:40.063Z,13.20
2019-05-19T03:40:22.026Z,13.20
2019-05-19T03:42:52.007Z,13.20
2019-05-19T03:45:21.642Z,13.20
2019-05-19T03:47:51.255Z,13.20
2019-05-19T03:50:20.870Z,13.20
2019-05-19T03:52:51.456Z,13.20
2019-05-19T03:55:21.807Z,13.20
2019-05-19T03:58:03.534Z,13.20
2019-05-19T04:00:33.235Z,13.20
2019-05-19T04:03:02.915Z,13.20
2019-05-19T04:05:32.603Z,13.20
2019-05-19T04:08:02.224Z,13.20
2019-05-19T04:10:31.857Z,13.20
2019-05-19T04:13:01.443Z,13.20
2019-05-19T04:15:31.055Z,13.20
2019-05-19T04:18:00.808Z,13.20
2019-05-19T04:20:30.517Z,13.20
2019-05-19T04:23:00.404Z,13.20
2019-05-19T04:25:30.092Z,13.20
2019-05-19T04:28:02.662Z,13.20
2019-05-19T04:30:32.357Z,13.20
2019-05-19T04:33:01.990Z,13.30
2019-05-19T04:35:31.651Z,13.30
2019-05-19T04:38:01.281Z,13.30
2019-05-19T04:40:30.910Z,13.30
2019-05-19T04:43:00.592Z,13.30
2019-05-19T04:45:30.214Z,13.30
2019-05-19T04:47:59.998Z,13.30
2019-05-19T04:50:29.648Z,13.30
2019-05-19T04:52:59.372Z,13.30
2019-05-19T04:55:28.990Z,13.40
2019-05-19T04:57:58.606Z,13.40
2019-05-19T05:00:28.292Z,13.40
2019-05-19T05:02:57.927Z,13.40
2019-05-19T05:05:27.634Z,13.50
2019-05-19T05:07:58.658Z,13.50
2019-05-19T05:10:28.357Z,13.50
2019-05-19T05:12:58.020Z,13.50
2019-05-19T05:15:27.704Z,13.50
2019-05-19T05:17:57.566Z,13.50
2019-05-19T05:20:27.189Z,13.50
2019-05-19T05:22:56.826Z,13.50
2019-05-19T05:25:26.535Z,13.50
2019-05-19T05:27:56.163Z,13.60
2019-05-19T05:30:25.772Z,13.60
2019-05-19T05:32:55.379Z,13.60
2019-05-19T05:35:25.169Z,13.60
2019-05-19T05:37:54.762Z,13.60
2019-05-19T05:40:24.374Z,13.70
2019-05-19T05:42:53.996Z,13.70
2019-05-19T05:45:23.678Z,13.60
2019-05-19T05:47:53.298Z,13.60
2019-05-19T05:50:22.978Z,13.60
2019-05-19T05:52:53.564Z,13.60
2019-05-19T05:55:23.214Z,13.60
2019-05-19T05:57:52.846Z,13.60
2019-05-19T06:00:22.527Z,13.60
2019-05-19T06:02:52.156Z,13.60
2019-05-19T06:05:21.822Z,13.70
2019-05-19T06:07:51.430Z,13.70
2019-05-19T06:10:21.070Z,13.70
2019-05-19T06:12:50.715Z,13.80
2019-05-19T06:15:21.924Z,13.70
2019-05-19T06:17:51.544Z,13.70
2019-05-19T06:20:21.161Z,13.70
2019-05-19T06:22:56.663Z,13.80
2019-05-19T06:25:22.352Z,13.80
2019-05-19T06:27:52.230Z,13.90
2019-05-19T06:30:22.018Z,13.90
2019-05-19T06:32:53.217Z,14.00
2019-05-19T06:35:23.028Z,14.10
2019-05-19T06:37:52.666Z,14.10
2019-05-19T06:40:22.584Z,14.00
2019-05-19T06:42:52.183Z,14.00
2019-05-19T06:45:22.422Z,14.10
2019-05-19T06:47:52.015Z,14.20
2019-05-19T06:50:21.918Z,14.30
2019-05-19T06:52:51.594Z,14.40
2019-05-19T06:55:21.292Z,14.60
2019-05-19T06:57:50.961Z,14.60
2019-05-19T07:00:20.840Z,14.60
2019-05-19T07:02:50.528Z,14.50
2019-05-19T07:05:20.135Z,14.50
2019-05-19T07:07:49.734Z,14.50
2019-05-19T07:10:19.502Z,14.50
2019-05-19T07:12:49.112Z,14.60
2019-05-19T07:15:18.950Z,14.60
2019-05-19T07:17:48.580Z,14.70
2019-05-19T07:20:18.255Z,14.80
2019-05-19T07:22:48.012Z,15.00
2019-05-19T07:25:17.763Z,15.10
2019-05-19T07:27:47.380Z,15.20
2019-05-19T07:30:18.371Z,15.20
2019-05-19T07:32:48.149Z,15.20
2019-05-19T07:35:17.830Z,15.00
2019-05-19T07:37:47.457Z,15.10
2019-05-19T07:40:17.314Z,15.00
2019-05-19T07:42:46.930Z,15.10
2019-05-19T07:45:16.998Z,14.80
2019-05-19T07:47:46.602Z,14.70
2019-05-19T07:50:16.275Z,14.70
2019-05-19T07:52:45.882Z,14.60
2019-05-19T07:55:15.567Z,14.50
2019-05-19T07:57:45.174Z,14.40
2019-05-19T08:00:15.246Z,14.40
2019-05-19T08:02:44.898Z,14.50
2019-05-19T08:05:14.602Z,14.40
2019-05-19T08:07:44.209Z,14.40
2019-05-19T08:10:14.179Z,14.40
2019-05-19T08:12:43.774Z,14.40
2019-05-19T08:15:13.647Z,14.40
2019-05-19T08:17:43.289Z,14.60
2019-05-19T08:20:14.278Z,14.60
2019-05-19T08:22:43.898Z,14.30
2019-05-19T08:25:13.638Z,14.10
2019-05-19T08:27:43.243Z,14.00
2019-05-19T08:30:13.138Z,14.10
2019-05-19T08:32:42.957Z,14.30
2019-05-19T08:35:12.725Z,14.50
2019-05-19T08:37:42.347Z,14.40
2019-05-19T08:40:12.098Z,14.20
2019-05-19T08:42:41.706Z,14.20
2019-05-19T08:45:11.584Z,14.30
2019-05-19T08:47:41.203Z,14.50
2019-05-19T08:50:11.030Z,14.50
2019-05-19T08:52:40.811Z,14.50
2019-05-19T08:55:10.526Z,14.60
2019-05-19T08:57:40.386Z,14.70
2019-05-19T09:00:10.346Z,15.00
2019-05-19T09:02:40.027Z,15.20
2019-05-19T09:05:10.708Z,15.30
2019-05-19T09:07:40.301Z,15.30
2019-05-19T09:10:11.270Z,15.10
2019-05-19T09:12:40.895Z,15.20
2019-05-19T09:15:11.042Z,15.20
2019-05-19T09:17:40.645Z,15.20
2019-05-19T09:20:10.702Z,15.20
2019-05-19T09:22:40.312Z,14.80
2019-05-19T09:25:10.188Z,14.50
2019-05-19T09:27:39.801Z,14.30
2019-05-19T09:30:10.057Z,14.20
2019-05-19T09:32:40.614Z,14.00
2019-05-19T09:35:10.314Z,14.00
2019-05-19T09:37:39.939Z,13.90
2019-05-19T09:40:10.053Z,13.90
2019-05-19T09:42:39.652Z,13.90
2019-05-19T09:45:10.006Z,14.00
2019-05-19T09:47:39.601Z,14.00
2019-05-19T09:50:09.857Z,14.00
2019-05-19T09:52:39.494Z,14.20
2019-05-19T09:55:10.055Z,14.20
2019-05-19T09:57:39.786Z,14.30
2019-05-19T10:00:11.530Z,14.40
2019-05-19T10:02:41.133Z,14.50
2019-05-19T10:05:11.110Z,14.60
2019-05-19T10:07:40.710Z,14.70
2019-05-19T10:10:13.202Z,14.70
2019-05-19T10:12:42.893Z,14.60
2019-05-19T10:15:13.631Z,14.70
2019-05-19T10:17:43.314Z,14.60
2019-05-19T10:20:14.297Z,14.70
2019-05-19T10:22:43.937Z,14.70
2019-05-19T10:25:23.228Z,14.60
2019-05-19T10:27:46.503Z,14.70
2019-05-19T10:30:17.160Z,14.80
2019-05-19T10:32:46.788Z,14.90
2019-05-19T10:35:16.554Z,15.00
2019-05-19T10:37:46.174Z,14.90
2019-05-19T10:40:16.206Z,14.90
2019-05-19T10:42:45.830Z,14.80
2019-05-19T10:45:16.332Z,14.70
2019-05-19T10:47:45.970Z,14.50
2019-05-19T10:50:15.742Z,14.40
2019-05-19T10:52:45.503Z,14.40
2019-05-19T10:55:15.182Z,14.50
2019-05-19T10:57:44.818Z,14.60
2019-05-19T11:00:15.029Z,14.70
2019-05-19T11:02:44.694Z,14.80
2019-05-19T11:05:14.491Z,14.90
2019-05-19T11:07:44.118Z,15.10
2019-05-19T11:10:14.071Z,15.30
2019-05-19T11:12:46.841Z,15.50
2019-05-19T11:15:15.642Z,15.70
2019-05-19T11:17:45.265Z,15.90
2019-05-19T11:20:14.961Z,16.00
2019-05-19T11:22:44.587Z,16.00
2019-05-19T11:25:14.466Z,16.10
2019-05-19T11:27:44.087Z,16.20
2019-05-19T11:30:13.921Z,16.30
2019-05-19T11:32:43.549Z,16.20
2019-05-19T11:35:13.382Z,16.20
2019-05-19T11:37:42.986Z,16.20
2019-05-19T11:40:13.643Z,16.20
2019-05-19T11:42:43.249Z,16.20
2019-05-19T11:45:12.939Z,16.30
2019-05-19T11:47:42.554Z,16.40
2019-05-19T11:50:12.341Z,16.30
2019-05-19T11:52:41.935Z,16.30
2019-05-19T11:55:12.572Z,16.20
2019-05-19T11:57:42.175Z,16.00
2019-05-19T12:00:12.142Z,15.90
2019-05-19T12:02:41.745Z,15.80
2019-05-19T12:05:11.720Z,15.70
2019-05-19T12:07:41.311Z,15.50
2019-05-19T12:10:11.387Z,15.70
2019-05-19T12:12:41.046Z,15.90
2019-05-19T12:15:12.224Z,16.00
2019-05-19T12:17:41.815Z,16.10
2019-05-19T12:20:11.767Z,16.10
2019-05-19T12:22:41.371Z,16.00
2019-05-19T12:25:11.318Z,16.00
2019-05-19T12:27:40.938Z,16.00
2019-05-19T12:30:14.444Z,15.90
2019-05-19T12:32:44.128Z,15.80
2019-05-19T12:35:14.209Z,15.70
2019-05-19T12:37:43.821Z,15.60
2019-05-19T12:40:13.866Z,15.40
2019-05-19T12:42:43.485Z,15.40
2019-05-19T12:45:14.542Z,15.50
2019-05-19T12:47:44.218Z,15.50
2019-05-19T12:50:14.573Z,15.50
2019-05-19T12:52:44.178Z,15.40
2019-05-19T12:55:14.048Z,15.30
2019-05-19T12:57:43.775Z,15.20
2019-05-19T13:00:13.974Z,15.20
2019-05-19T13:02:43.583Z,15.10
2019-05-19T13:05:13.546Z,15.10
2019-05-19T13:07:43.306Z,15.20
2019-05-19T13:10:13.108Z,15.30
2019-05-19T13:12:42.715Z,15.00
2019-05-19T13:15:15.503Z,15.10
2019-05-19T13:17:43.886Z,15.10
2019-05-19T13:20:14.297Z,15.00
2019-05-19T13:22:43.904Z,14.80
2019-05-19T13:25:13.763Z,14.80
2019-05-19T13:27:43.456Z,14.80
2019-05-19T13:30:14.254Z,14.80
2019-05-19T13:32:43.900Z,14.90
2019-05-19T13:35:14.147Z,15.00
2019-05-19T13:37:43.746Z,15.20
2019-05-19T13:40:13.741Z,15.20
2019-05-19T13:42:43.466Z,15.20
2019-05-19T13:45:13.523Z,15.20
2019-05-19T13:47:43.134Z,15.30
2019-05-19T13:50:13.106Z,15.50
2019-05-19T13:52:42.703Z,15.50
2019-05-19T13:55:12.512Z,15.40
2019-05-19T13:57:42.127Z,15.50
2019-05-19T14:00:12.454Z,15.50
2019-05-19T14:02:42.316Z,15.50
2019-05-19T14:05:12.081Z,15.20
2019-05-19T14:07:41.690Z,15.10
2019-05-19T14:10:11.745Z,15.20
2019-05-19T14:12:41.446Z,15.30
2019-05-19T14:15:11.248Z,15.40
2019-05-19T14:17:41.006Z,15.30
2019-05-19T14:20:10.895Z,15.20
2019-05-19T14:22:40.542Z,15.20
2019-05-19T14:25:10.733Z,15.00
2019-05-19T14:27:40.453Z,14.80
2019-05-19T14:30:11.114Z,14.80
2019-05-19T14:32:40.725Z,14.70
2019-05-19T14:35:10.583Z,14.80
2019-05-19T14:37:40.230Z,14.70
2019-05-19T14:40:10.270Z,14.60
2019-05-19T14:42:56.302Z,14.50
2019-05-19T14:45:25.909Z,14.40
2019-05-19T14:47:55.576Z,14.30
2019-05-19T14:50:25.186Z,14.20
2019-05-19T14:52:54.788Z,14.20
2019-05-19T14:55:24.395Z,14.30
2019-05-19T14:57:54.010Z,14.20
2019-05-19T15:00:23.618Z,14.20
2019-05-19T15:02:53.306Z,14.20
2019-05-19T15:05:23.283Z,14.20
2019-05-19T15:07:53.112Z,14.10
2019-05-19T15:10:22.946Z,13.90
2019-05-19T15:12:52.570Z,13.80
2019-05-19T15:15:22.171Z,13.80
2019-05-19T15:17:51.771Z,13.90
2019-05-19T15:20:21.474Z,13.70
2019-05-19T15:22:51.158Z,13.70
2019-05-19T15:25:20.887Z,13.70
2019-05-19T15:27:59.848Z,13.80
2019-05-19T15:30:22.116Z,13.70
2019-05-19T15:32:51.757Z,13.70
2019-05-19T15:35:21.454Z,13.70
2019-05-19T15:37:51.070Z,13.70
2019-05-19T15:40:20.717Z,13.80
2019-05-19T15:42:50.350Z,13.70
2019-05-19T15:45:20.129Z,13.70
2019-05-19T15:47:49.715Z,13.70
2019-05-19T15:50:19.774Z,13.60
2019-05-19T15:52:49.470Z,13.60
2019-05-19T15:55:19.121Z,13.60
2019-05-19T15:58:40.574Z,13.70
2019-05-19T16:01:10.215Z,13.80
2019-05-19T16:03:41.205Z,13.70
2019-05-19T16:06:10.846Z,13.70
2019-05-19T16:08:40.561Z,13.60
2019-05-19T16:11:10.217Z,13.60
2019-05-19T16:13:39.815Z,13.60
2019-05-19T16:16:21.651Z,13.50
2019-05-19T16:18:53.205Z,13.50
2019-05-19T16:21:22.618Z,13.40
2019-05-19T16:23:52.226Z,13.40
2019-05-19T16:26:21.853Z,13.40
2019-05-19T16:28:51.442Z,13.40
2019-05-19T16:31:21.054Z,13.40
2019-05-19T16:33:50.658Z,13.40
2019-05-19T16:36:20.283Z,13.20
2019-05-19T16:38:49.942Z,13.20
2019-05-19T16:41:19.726Z,13.10
2019-05-19T16:43:49.342Z,13.10
2019-05-19T16:46:19.917Z,13.10
2019-05-19T16:48:49.534Z,13.10
2019-05-19T16:51:19.141Z,13.10
2019-05-19T16:53:51.023Z,13.00
2019-05-19T16:56:20.671Z,13.00
2019-05-19T16:58:50.290Z,13.00
2019-05-19T17:01:20.198Z,13.00
2019-05-19T17:03:49.858Z,13.00
2019-05-19T17:06:20.226Z,13.00
2019-05-19T17:08:49.856Z,13.00
2019-05-19T17:11:19.479Z,12.90
2019-05-19T17:13:49.082Z,13.00
2019-05-19T17:16:18.688Z,12.90
2019-05-19T17:18:48.316Z,12.90
2019-05-19T17:21:18.002Z,12.80
2019-05-19T17:23:47.610Z,12.70
2019-05-19T17:26:17.226Z,12.80
2019-05-19T17:28:59.785Z,12.80
2019-05-19T17:31:18.408Z,12.70
2019-05-19T17:33:48.031Z,12.60
2019-05-19T17:36:18.702Z,12.60
2019-05-19T17:38:48.339Z,12.60
2019-05-19T17:41:17.952Z,12.60
2019-05-19T17:43:47.574Z,12.60
2019-05-19T17:46:17.264Z,12.50
2019-05-19T17:48:46.890Z,12.50
2019-05-19T17:51:16.508Z,12.50
2019-05-19T17:53:46.125Z,12.50
2019-05-19T17:56:16.684Z,12.50
2019-05-19T17:58:46.675Z,12.40
2019-05-19T18:01:16.304Z,12.40
2019-05-19T18:03:46.384Z,12.40
2019-05-19T18:06:16.070Z,12.50
2019-05-19T18:08:45.683Z,12.50
2019-05-19T18:11:15.317Z,12.50
2019-05-19T18:13:44.926Z,12.50
2019-05-19T18:16:14.535Z,12.40
2019-05-19T18:18:44.174Z,12.40
2019-05-19T18:21:13.802Z,12.40
2019-05-19T18:23:43.413Z,12.20
2019-05-19T18:26:13.082Z,12.30
2019-05-19T18:28:42.668Z,12.30
2019-05-19T18:31:12.374Z,12.20
2019-05-19T18:33:41.982Z,12.20
2019-05-19T18:36:11.611Z,12.20
2019-05-19T18:38:42.203Z,12.20
2019-05-19T18:41:11.818Z,12.10
2019-05-19T18:43:41.436Z,12.00
2019-05-19T18:46:11.051Z,12.10
2019-05-19T18:48:40.670Z,12.00
2019-05-19T18:51:10.559Z,12.00
2019-05-19T18:53:40.410Z,11.90
2019-05-19T18:56:10.022Z,11.90
2019-05-19T18:58:39.631Z,11.80
2019-05-19T19:01:09.325Z,11.90
2019-05-19T19:03:39.010Z,11.80
2019-05-19T19:06:08.651Z,11.90
2019-05-19T19:08:38.293Z,11.90
2019-05-19T19:11:07.923Z,11.90
2019-05-19T19:13:37.535Z,11.90
2019-05-19T19:16:07.158Z,11.90
2019-05-19T19:18:36.775Z,11.90
2019-05-19T19:21:06.411Z,11.80
2019-05-19T19:23:36.048Z,11.80
2019-05-19T19:26:05.774Z,11.80
2019-05-19T19:28:35.383Z,11.90
2019-05-19T19:31:04.994Z,11.90
2019-05-19T19:33:34.663Z,12.00
2019-05-19T19:36:04.539Z,11.90
2019-05-19T19:38:34.142Z,11.90
2019-05-19T19:41:03.830Z,11.80
2019-05-19T19:43:34.442Z,11.90
2019-05-19T19:46:04.139Z,11.80
2019-05-19T19:48:34.009Z,11.80
2019-05-19T19:51:03.619Z,11.70
2019-05-19T19:53:33.258Z,11.70
2019-05-19T19:56:02.878Z,11.70
2019-05-19T19:58:32.604Z,11.70
2019-05-19T20:01:02.228Z,11.70
2019-05-19T20:03:31.873Z,11.70
2019-05-19T20:06:01.483Z,11.70
2019-05-19T20:08:31.204Z,11.80
2019-05-19T20:11:00.827Z,11.80
2019-05-19T20:13:30.467Z,11.90
2019-05-19T20:16:00.095Z,11.90
2019-05-19T20:18:29.788Z,11.90
2019-05-19T20:20:59.473Z,11.90
2019-05-19T20:23:29.102Z,11.90
2019-05-19T20:25:58.710Z,11.90
2019-05-19T20:28:28.327Z,11.90
2019-05-19T20:30:58.012Z,12.00
2019-05-19T20:33:27.700Z,12.00
2019-05-19T20:35:57.364Z,12.00
2019-05-19T20:38:26.978Z,11.90
2019-05-19T20:40:56.614Z,11.90
2019-05-19T20:43:26.826Z,11.90
2019-05-19T20:45:56.517Z,11.80
2019-05-19T20:48:26.138Z,11.90
2019-05-19T20:50:55.759Z,11.90
2019-05-19T20:53:25.381Z,11.90
2019-05-19T20:55:54.994Z,11.90
2019-05-19T20:58:24.621Z,11.90
2019-05-19T21:00:54.268Z,11.90
2019-05-19T21:03:23.887Z,11.90
2019-05-19T21:05:53.498Z,11.90
2019-05-19T21:08:23.117Z,11.90
2019-05-19T21:10:52.814Z,12.00
2019-05-19T21:13:22.453Z,12.00
2019-05-19T21:15:52.129Z,12.00
2019-05-19T21:18:21.826Z,12.00
2019-05-19T21:20:51.430Z,12.00
2019-05-19T21:23:21.059Z,12.00
2019-05-19T21:25:50.677Z,12.00
2019-05-19T21:28:20.294Z,12.00
2019-05-19T21:31:04.521Z,12.10
2019-05-19T21:33:21.334Z,12.10
2019-05-19T21:35:50.976Z,12.20
2019-05-19T21:38:20.590Z,12.10
2019-05-19T21:40:50.217Z,12.10
2019-05-19T21:43:19.878Z,12.20
2019-05-19T21:45:49.535Z,12.20
2019-05-19T21:48:21.010Z,12.20
2019-05-19T21:50:50.634Z,12.20
2019-05-19T21:53:20.287Z,12.10
2019-05-19T21:55:49.969Z,12.10
2019-05-19T21:58:19.603Z,12.10
2019-05-19T22:00:49.827Z,12.10
2019-05-19T22:03:19.480Z,12.10
2019-05-19T22:05:53.541Z,12.10
2019-05-19T22:08:20.518Z,12.10
2019-05-19T22:10:50.218Z,12.20
2019-05-19T22:13:19.834Z,12.20
2019-05-19T22:15:49.519Z,12.10
2019-05-19T22:18:19.223Z,12.10
2019-05-19T22:20:48.891Z,12.10
2019-05-19T22:23:18.546Z,12.10
2019-05-19T22:25:48.170Z,12.10
2019-05-19T22:28:17.781Z,12.10
2019-05-19T22:30:47.454Z,12.10
2019-05-19T22:33:17.090Z,12.10
2019-05-19T22:35:46.711Z,12.10
2019-05-19T22:38:16.334Z,12.10
2019-05-19T22:40:45.963Z,12.10
2019-05-19T22:43:15.558Z,12.10
2019-05-19T22:45:45.433Z,12.10
2019-05-19T22:48:15.062Z,12.20
2019-05-19T22:50:44.699Z,12.20
2019-05-19T22:53:14.306Z,12.10
2019-05-19T22:55:43.941Z,12.10
2019-05-19T22:58:13.563Z,12.00
2019-05-19T23:00:43.251Z,12.10
2019-05-19T23:03:12.867Z,12.00
2019-05-19T23:05:42.494Z,12.00
2019-05-19T23:08:12.179Z,12.00
2019-05-19T23:10:42.146Z,12.00
2019-05-19T23:13:11.738Z,12.00
2019-05-19T23:15:41.373Z,12.00
2019-05-19T23:18:10.981Z,12.00
2019-05-19T23:20:40.652Z,12.00
2019-05-19T23:23:11.330Z,12.00
2019-05-19T23:25:40.942Z,12.00
2019-05-19T23:28:10.605Z,12.00
2019-05-19T23:30:40.209Z,12.10
2019-05-19T23:33:09.827Z,12.10
2019-05-19T23:35:39.447Z,12.00
2019-05-19T23:38:09.058Z,12.00
2019-05-19T23:40:38.670Z,12.00
2019-05-19T23:43:08.302Z,12.10
2019-05-19T23:45:37.910Z,12.10
2019-05-19T23:48:07.528Z,12.10
2019-05-19T23:50:37.135Z,12.10
2019-05-19T23:53:06.754Z,12.00
2019-05-19T23:55:36.362Z,12.00
2019-05-19T23:58:05.972Z,12.00
